sensor_id;sensor_type;location;lat;lon;timestamp;P1;durP1;ratioP1;P2;durP2;ratioP2
39276;SDS011;63149;48.086;-1.606;2023-05-10T05:01:31;18.55;;;3.17;;
39276;SDS011;63149;48.086;-1.606;2023-05-10T05:03:59;13.25;;;3.25;;
39276;SDS011;63149;48.086;-1.606;2023-05-10T05:06:26;21.42;;;4.53;;
39276;SDS011;63149;48.086;-1.606;2023-05-10T05:08:53;12.88;;;2.80;;
39276;SDS011;63149;48.086;-1.606;2023-05-10T05:11:20;22.65;;;4.85;;
39276;SDS011;63149;48.086;-1.606;2023-05-10T05:13:48;23.73;;;4.97;;
39276;SDS011;63149;48.086;-1.606;2023-05-10T05:16:15;22.75;;;3.40;;
39276;SDS011;63149;48.086;-1.606;2023-05-10T05:18:43;18.13;;;3.05;;
39276;SDS011;63149;48.086;-1.606;2023-05-10T05:21:14;17.30;;;4.13;;
39276;SDS011;63149;48.086;-1.606;2023-05-10T05:23:41;21.33;;;2.80;;
39276;SDS011;63149;48.086;-1.606;2023-05-10T05:26:08;19.70;;;4.57;;
39276;SDS011;63149;48.086;-1.606;2023-05-10T05:28:36;15.70;;;3.00;;
39276;SDS011;63149;48.086;-1.606;2023-05-10T05:31:03;21.98;;;2.97;;
39276;SDS011;63149;48.086;-1.606;2023-05-10T05:33:30;26.52;;;3.45;;
39276;SDS011;63149;48.086;-1.606;2023-05-10T05:36:01;24.17;;;4.05;;
39276;SDS011;63149;48.086;-1.606;2023-05-10T05:38:28;17.13;;;2.75;;
39276;SDS011;63149;48.086;-1.606;2023-05-10T05:40:55;24.58;;;4.05;;
39276;SDS011;63149;48.086;-1.606;2023-05-10T05:43:22;21.05;;;3.30;;
39276;SDS011;63149;48.086;-1.606;2023-05-10T05:45:51;19.90;;;3.42;;
39276;SDS011;63149;48.086;-1.606;2023-05-10T05:48:18;27.00;;;5.60;;
39276;SDS011;63149;48.086;-1.606;2023-05-10T05:50:46;20.77;;;3.67;;
39276;SDS011;63149;48.086;-1.606;2023-05-10T05:53:14;20.50;;;3.92;;
39276;SDS011;63149;48.086;-1.606;2023-05-10T05:55:50;26.48;;;3.30;;
39276;SDS011;63149;48.086;-1.606;2023-05-10T05:58:18;18.60;;;3.78;;
39276;SDS011;63149;48.086;-1.606;2023-05-10T06:00:45;17.25;;;3.88;;
39276;SDS011;63149;48.086;-1.606;2023-05-10T06:03:12;23.90;;;3.67;;
39276;SDS011;63149;48.086;-1.606;2023-05-10T06:05:39;16.40;;;3.42;;
39276;SDS011;63149;48.086;-1.606;2023-05-10T06:08:07;24.92;;;4.05;;
39276;SDS011;63149;48.086;-1.606;2023-05-10T06:10:36;24.60;;;4.93;;
39276;SDS011;63149;48.086;-1.606;2023-05-10T06:13:03;23.58;;;3.88;;
39276;SDS011;63149;48.086;-1.606;2023-05-10T06:15:31;20.05;;;3.53;;
39276;SDS011;63149;48.086;-1.606;2023-05-10T06:17:59;24.25;;;4.45;;
39276;SDS011;63149;48.086;-1.606;2023-05-10T06:20:26;24.70;;;3.50;;
39276;SDS011;63149;48.086;-1.606;2023-05-10T06:22:54;20.40;;;3.92;;
39276;SDS011;63149;48.086;-1.606;2023-05-10T06:25:21;17.70;;;3.78;;
39276;SDS011;63149;48.086;-1.606;2023-05-10T06:27:49;20.60;;;3.88;;
39276;SDS011;63149;48.086;-1.606;2023-05-10T06:30:22;19.83;;;3.90;;
39276;SDS011;63149;48.086;-1.606;2023-05-10T06:32:52;19.15;;;4.05;;
39276;SDS011;63149;48.086;-1.606;2023-05-10T06:35:20;24.30;;;4.05;;
39276;SDS011;63149;48.086;-1.606;2023-05-10T06:37:47;25.40;;;3.47;;
39276;SDS011;63149;48.086;-1.606;2023-05-10T06:40:14;17.85;;;3.78;;
39276;SDS011;63149;48.086;-1.606;2023-05-10T06:42:41;24.83;;;3.92;;
39276;SDS011;63149;48.086;-1.606;2023-05-10T06:45:11;22.00;;;4.60;;
39276;SDS011;63149;48.086;-1.606;2023-05-10T06:47:39;22.02;;;3.55;;
39276;SDS011;63149;48.086;-1.606;2023-05-10T06:50:06;27.45;;;3.58;;
39276;SDS011;63149;48.086;-1.606;2023-05-10T06:52:34;13.82;;;3.08;;
39276;SDS011;63149;48.086;-1.606;2023-05-10T06:55:01;22.83;;;3.92;;
39276;SDS011;63149;48.086;-1.606;2023-05-10T06:57:29;18.02;;;3.45;;
39276;SDS011;63149;48.086;-1.606;2023-05-10T06:59:56;26.67;;;4.32;;
39276;SDS011;63149;48.086;-1.606;2023-05-10T07:02:25;29.00;;;4.47;;
39276;SDS011;63149;48.086;-1.606;2023-05-10T07:04:52;22.60;;;3.95;;
39276;SDS011;63149;48.086;-1.606;2023-05-10T07:07:19;30.10;;;5.05;;
39276;SDS011;63149;48.086;-1.606;2023-05-10T07:09:47;21.52;;;5.22;;
39276;SDS011;63149;48.086;-1.606;2023-05-10T07:12:14;25.60;;;4.10;;
39276;SDS011;63149;48.086;-1.606;2023-05-10T07:14:42;25.08;;;3.88;;
39276;SDS011;63149;48.086;-1.606;2023-05-10T07:17:09;18.67;;;3.67;;
39276;SDS011;63149;48.086;-1.606;2023-05-10T07:19:38;21.20;;;4.50;;
39276;SDS011;63149;48.086;-1.606;2023-05-10T07:22:05;19.98;;;4.43;;
39276;SDS011;63149;48.086;-1.606;2023-05-10T07:24:32;31.42;;;4.65;;
39276;SDS011;63149;48.086;-1.606;2023-05-10T07:27:00;19.15;;;3.78;;
39276;SDS011;63149;48.086;-1.606;2023-05-10T07:29:27;20.88;;;3.83;;
39276;SDS011;63149;48.086;-1.606;2023-05-10T07:31:54;22.23;;;3.53;;
39276;SDS011;63149;48.086;-1.606;2023-05-10T07:34:22;19.23;;;4.00;;
39276;SDS011;63149;48.086;-1.606;2023-05-10T07:36:50;23.92;;;3.90;;
39276;SDS011;63149;48.086;-1.606;2023-05-10T07:39:17;17.92;;;3.63;;
39276;SDS011;63149;48.086;-1.606;2023-05-10T07:41:45;20.85;;;3.80;;
39276;SDS011;63149;48.086;-1.606;2023-05-10T07:44:12;20.55;;;3.58;;
39276;SDS011;63149;48.086;-1.606;2023-05-10T07:46:39;17.92;;;3.80;;
39276;SDS011;63149;48.086;-1.606;2023-05-10T07:49:07;20.83;;;6.50;;
39276;SDS011;63149;48.086;-1.606;2023-05-10T07:51:34;15.63;;;4.13;;
39276;SDS011;63149;48.086;-1.606;2023-05-10T07:54:03;27.35;;;3.63;;
39276;SDS011;63149;48.086;-1.606;2023-05-10T07:56:31;18.17;;;3.45;;
39276;SDS011;63149;48.086;-1.606;2023-05-10T07:58:58;15.43;;;4.03;;
39276;SDS011;63149;48.086;-1.606;2023-05-10T08:01:26;32.13;;;9.32;;
39276;SDS011;63149;48.086;-1.606;2023-05-10T08:03:53;12.82;;;4.07;;
39276;SDS011;63149;48.086;-1.606;2023-05-10T08:06:20;12.68;;;3.15;;
39276;SDS011;63149;48.086;-1.606;2023-05-10T08:08:48;19.23;;;3.10;;
39276;SDS011;63149;48.086;-1.606;2023-05-10T08:11:18;21.02;;;3.50;;
39276;SDS011;63149;48.086;-1.606;2023-05-10T08:13:47;19.17;;;3.28;;
39276;SDS011;63149;48.086;-1.606;2023-05-10T08:16:14;17.35;;;3.28;;
39276;SDS011;63149;48.086;-1.606;2023-05-10T08:18:43;11.93;;;2.97;;
39276;SDS011;63149;48.086;-1.606;2023-05-10T08:21:11;18.23;;;3.75;;
39276;SDS011;63149;48.086;-1.606;2023-05-10T08:23:39;9.85;;;2.85;;
39276;SDS011;63149;48.086;-1.606;2023-05-10T08:26:06;19.10;;;3.67;;
39276;SDS011;63149;48.086;-1.606;2023-05-10T08:28:34;18.08;;;4.80;;
39276;SDS011;63149;48.086;-1.606;2023-05-10T08:31:02;12.00;;;3.03;;
39276;SDS011;63149;48.086;-1.606;2023-05-10T08:33:29;19.98;;;3.53;;
39276;SDS011;63149;48.086;-1.606;2023-05-10T08:35:56;16.13;;;3.25;;
39276;SDS011;63149;48.086;-1.606;2023-05-10T08:38:23;13.45;;;2.92;;
39276;SDS011;63149;48.086;-1.606;2023-05-10T08:40:50;12.65;;;3.65;;
39276;SDS011;63149;48.086;-1.606;2023-05-10T08:43:21;14.13;;;3.45;;
39276;SDS011;63149;48.086;-1.606;2023-05-10T08:45:53;7.60;;;2.80;;
39276;SDS011;63149;48.086;-1.606;2023-05-10T08:48:21;15.32;;;3.30;;
39276;SDS011;63149;48.086;-1.606;2023-05-10T08:50:49;13.93;;;3.10;;
39276;SDS011;63149;48.086;-1.606;2023-05-10T08:53:18;13.35;;;3.15;;
39276;SDS011;63149;48.086;-1.606;2023-05-10T08:55:46;10.60;;;2.80;;
39276;SDS011;63149;48.086;-1.606;2023-05-10T08:58:13;15.18;;;2.92;;
39276;SDS011;63149;48.086;-1.606;2023-05-10T09:00:41;16.92;;;3.00;;
39276;SDS011;63149;48.086;-1.606;2023-05-10T09:03:09;10.40;;;3.85;;
39276;SDS011;63149;48.086;-1.606;2023-05-10T09:05:37;16.65;;;3.25;;
39276;SDS011;63149;48.086;-1.606;2023-05-10T09:08:04;14.75;;;2.90;;
39276;SDS011;63149;48.086;-1.606;2023-05-10T09:10:33;13.45;;;3.33;;
39276;SDS011;63149;48.086;-1.606;2023-05-10T09:13:00;10.45;;;3.15;;
39276;SDS011;63149;48.086;-1.606;2023-05-10T09:15:27;11.48;;;2.78;;
39276;SDS011;63149;48.086;-1.606;2023-05-10T09:17:54;12.18;;;3.20;;
39276;SDS011;63149;48.086;-1.606;2023-05-10T09:20:24;10.60;;;2.97;;
39276;SDS011;63149;48.086;-1.606;2023-05-10T09:22:51;9.98;;;2.83;;
39276;SDS011;63149;48.086;-1.606;2023-05-10T09:25:19;15.23;;;3.53;;
39276;SDS011;63149;48.086;-1.606;2023-05-10T09:27:47;9.85;;;2.72;;
39276;SDS011;63149;48.086;-1.606;2023-05-10T09:30:15;12.00;;;2.97;;
39276;SDS011;63149;48.086;-1.606;2023-05-10T09:32:43;15.27;;;2.97;;
39276;SDS011;63149;48.086;-1.606;2023-05-10T09:35:11;18.02;;;3.50;;
39276;SDS011;63149;48.086;-1.606;2023-05-10T09:37:40;21.33;;;4.72;;
39276;SDS011;63149;48.086;-1.606;2023-05-10T09:40:11;11.80;;;3.53;;
39276;SDS011;63149;48.086;-1.606;2023-05-10T09:42:38;11.75;;;3.38;;
39276;SDS011;63149;48.086;-1.606;2023-05-10T09:45:06;8.50;;;3.33;;
39276;SDS011;63149;48.086;-1.606;2023-05-10T09:47:34;9.13;;;2.80;;
39276;SDS011;63149;48.086;-1.606;2023-05-10T09:50:01;10.45;;;3.35;;
39276;SDS011;63149;48.086;-1.606;2023-05-10T09:52:29;11.00;;;3.55;;
39276;SDS011;63149;48.086;-1.606;2023-05-10T09:54:58;11.15;;;3.50;;
39276;SDS011;63149;48.086;-1.606;2023-05-10T09:57:26;13.95;;;3.95;;
39276;SDS011;63149;48.086;-1.606;2023-05-10T09:59:53;9.40;;;3.40;;
39276;SDS011;63149;48.086;-1.606;2023-05-10T10:02:27;8.93;;;3.42;;
39276;SDS011;63149;48.086;-1.606;2023-05-10T10:04:55;12.57;;;3.50;;
39276;SDS011;63149;48.086;-1.606;2023-05-10T10:07:22;15.13;;;3.67;;
39276;SDS011;63149;48.086;-1.606;2023-05-10T10:09:51;16.15;;;3.90;;
39276;SDS011;63149;48.086;-1.606;2023-05-10T10:12:20;14.93;;;3.30;;
39276;SDS011;63149;48.086;-1.606;2023-05-10T10:14:47;10.57;;;3.53;;
39276;SDS011;63149;48.086;-1.606;2023-05-10T10:17:15;9.35;;;3.63;;
39276;SDS011;63149;48.086;-1.606;2023-05-10T10:19:43;14.50;;;4.03;;
39276;SDS011;63149;48.086;-1.606;2023-05-10T10:22:10;8.65;;;3.00;;
39276;SDS011;63149;48.086;-1.606;2023-05-10T10:24:37;12.73;;;3.92;;
39276;SDS011;63149;48.086;-1.606;2023-05-10T10:27:11;15.25;;;3.85;;
39276;SDS011;63149;48.086;-1.606;2023-05-10T10:29:41;9.85;;;3.33;;
39276;SDS011;63149;48.086;-1.606;2023-05-10T10:32:16;8.00;;;3.28;;
39276;SDS011;63149;48.086;-1.606;2023-05-10T10:34:46;5.50;;;2.70;;
39276;SDS011;63149;48.086;-1.606;2023-05-10T10:37:13;9.07;;;2.60;;
39276;SDS011;63149;48.086;-1.606;2023-05-10T10:39:40;6.07;;;2.55;;
39276;SDS011;63149;48.086;-1.606;2023-05-10T10:42:07;7.10;;;2.75;;
39276;SDS011;63149;48.086;-1.606;2023-05-10T10:44:38;9.23;;;2.40;;
39276;SDS011;63149;48.086;-1.606;2023-05-10T10:47:10;11.10;;;2.70;;
39276;SDS011;63149;48.086;-1.606;2023-05-10T10:49:42;12.57;;;2.83;;
39276;SDS011;63149;48.086;-1.606;2023-05-10T10:52:13;14.98;;;2.92;;
39276;SDS011;63149;48.086;-1.606;2023-05-10T10:54:41;13.88;;;2.75;;
39276;SDS011;63149;48.086;-1.606;2023-05-10T10:57:11;7.88;;;2.97;;
39276;SDS011;63149;48.086;-1.606;2023-05-10T10:59:41;12.25;;;2.70;;
39276;SDS011;63149;48.086;-1.606;2023-05-10T11:02:10;8.57;;;2.95;;
39276;SDS011;63149;48.086;-1.606;2023-05-10T11:04:57;8.10;;;2.97;;
39276;SDS011;63149;48.086;-1.606;2023-05-10T11:07:25;9.30;;;2.45;;
39276;SDS011;63149;48.086;-1.606;2023-05-10T11:09:53;9.55;;;3.10;;
39276;SDS011;63149;48.086;-1.606;2023-05-10T11:12:21;8.50;;;2.30;;
39276;SDS011;63149;48.086;-1.606;2023-05-10T11:14:49;8.50;;;3.30;;
39276;SDS011;63149;48.086;-1.606;2023-05-10T11:17:24;4.97;;;1.98;;
39276;SDS011;63149;48.086;-1.606;2023-05-10T11:20:06;7.35;;;2.17;;
39276;SDS011;63149;48.086;-1.606;2023-05-10T11:22:48;6.50;;;1.90;;
39276;SDS011;63149;48.086;-1.606;2023-05-10T11:25:16;5.57;;;1.75;;
39276;SDS011;63149;48.086;-1.606;2023-05-10T11:27:43;5.45;;;1.80;;
39276;SDS011;63149;48.086;-1.606;2023-05-10T11:30:11;6.57;;;1.75;;
39276;SDS011;63149;48.086;-1.606;2023-05-10T11:32:41;5.97;;;1.88;;
39276;SDS011;63149;48.086;-1.606;2023-05-10T11:35:08;4.18;;;1.58;;
39276;SDS011;63149;48.086;-1.606;2023-05-10T11:37:36;7.78;;;1.58;;
39276;SDS011;63149;48.086;-1.606;2023-05-10T11:40:06;4.80;;;1.85;;
39276;SDS011;63149;48.086;-1.606;2023-05-10T11:42:35;3.47;;;1.63;;
39276;SDS011;63149;48.086;-1.606;2023-05-10T11:45:03;7.38;;;2.15;;
39276;SDS011;63149;48.086;-1.606;2023-05-10T11:47:30;2.53;;;1.38;;
39276;SDS011;63149;48.086;-1.606;2023-05-10T11:49:59;5.68;;;1.52;;
39276;SDS011;63149;48.086;-1.606;2023-05-10T11:52:26;4.88;;;1.52;;
39276;SDS011;63149;48.086;-1.606;2023-05-10T11:54:57;3.92;;;1.50;;
39276;SDS011;63149;48.086;-1.606;2023-05-10T11:57:26;6.43;;;1.80;;
39276;SDS011;63149;48.086;-1.606;2023-05-10T11:59:53;9.10;;;2.47;;
39276;SDS011;63149;48.086;-1.606;2023-05-10T12:02:21;11.65;;;2.42;;
39276;SDS011;63149;48.086;-1.606;2023-05-10T12:04:48;5.43;;;2.10;;
39276;SDS011;63149;48.086;-1.606;2023-05-10T12:07:17;6.78;;;2.17;;
39276;SDS011;63149;48.086;-1.606;2023-05-10T12:09:48;5.25;;;2.05;;
39276;SDS011;63149;48.086;-1.606;2023-05-10T12:12:34;2.85;;;2.05;;
39276;SDS011;63149;48.086;-1.606;2023-05-10T12:15:02;4.03;;;1.88;;
39276;SDS011;63149;48.086;-1.606;2023-05-10T12:17:29;11.68;;;2.75;;
39276;SDS011;63149;48.086;-1.606;2023-05-10T12:19:58;6.22;;;1.83;;
39276;SDS011;63149;48.086;-1.606;2023-05-10T12:22:27;7.13;;;2.15;;
39276;SDS011;63149;48.086;-1.606;2023-05-10T12:24:54;5.32;;;1.98;;
39276;SDS011;63149;48.086;-1.606;2023-05-10T12:27:21;5.47;;;1.88;;
39276;SDS011;63149;48.086;-1.606;2023-05-10T12:29:48;5.93;;;2.47;;
39276;SDS011;63149;48.086;-1.606;2023-05-10T12:32:16;3.70;;;1.60;;
39276;SDS011;63149;48.086;-1.606;2023-05-10T12:34:43;5.50;;;1.63;;
39276;SDS011;63149;48.086;-1.606;2023-05-10T12:37:13;4.45;;;1.42;;
39276;SDS011;63149;48.086;-1.606;2023-05-10T12:39:43;5.45;;;1.58;;
39276;SDS011;63149;48.086;-1.606;2023-05-10T12:42:11;4.82;;;1.77;;
39276;SDS011;63149;48.086;-1.606;2023-05-10T12:44:38;5.03;;;1.83;;
39276;SDS011;63149;48.086;-1.606;2023-05-10T12:47:05;6.22;;;2.30;;
39276;SDS011;63149;48.086;-1.606;2023-05-10T12:49:33;8.38;;;2.88;;
39276;SDS011;63149;48.086;-1.606;2023-05-10T12:52:00;7.28;;;2.00;;
39276;SDS011;63149;48.086;-1.606;2023-05-10T12:54:27;6.72;;;1.90;;
39276;SDS011;63149;48.086;-1.606;2023-05-10T12:56:56;5.70;;;1.77;;
39276;SDS011;63149;48.086;-1.606;2023-05-10T12:59:23;4.88;;;1.83;;
39276;SDS011;63149;48.086;-1.606;2023-05-10T13:01:50;5.35;;;1.50;;
39276;SDS011;63149;48.086;-1.606;2023-05-10T13:04:17;5.78;;;1.88;;
39276;SDS011;63149;48.086;-1.606;2023-05-10T13:06:45;4.80;;;2.15;;
39276;SDS011;63149;48.086;-1.606;2023-05-10T13:09:12;3.15;;;1.73;;
39276;SDS011;63149;48.086;-1.606;2023-05-10T13:11:40;3.70;;;1.58;;
39276;SDS011;63149;48.086;-1.606;2023-05-10T13:14:08;10.60;;;2.75;;
39276;SDS011;63149;48.086;-1.606;2023-05-10T13:16:36;5.03;;;2.30;;
39276;SDS011;63149;48.086;-1.606;2023-05-10T13:19:03;10.07;;;3.17;;
39276;SDS011;63149;48.086;-1.606;2023-05-10T13:21:30;7.60;;;3.50;;
39276;SDS011;63149;48.086;-1.606;2023-05-10T13:23:57;7.10;;;2.72;;
39276;SDS011;63149;48.086;-1.606;2023-05-10T13:26:25;6.32;;;2.53;;
39276;SDS011;63149;48.086;-1.606;2023-05-10T13:28:52;6.10;;;2.30;;
39276;SDS011;63149;48.086;-1.606;2023-05-10T13:31:21;6.68;;;2.03;;
39276;SDS011;63149;48.086;-1.606;2023-05-10T13:33:49;5.35;;;2.03;;
39276;SDS011;63149;48.086;-1.606;2023-05-10T13:36:16;6.82;;;2.78;;
39276;SDS011;63149;48.086;-1.606;2023-05-10T13:38:43;8.48;;;2.13;;
39276;SDS011;63149;48.086;-1.606;2023-05-10T13:41:10;6.20;;;1.65;;
39276;SDS011;63149;48.086;-1.606;2023-05-10T13:43:38;8.13;;;1.95;;
39276;SDS011;63149;48.086;-1.606;2023-05-10T13:46:05;4.78;;;1.52;;
39276;SDS011;63149;48.086;-1.606;2023-05-10T13:48:34;4.88;;;1.33;;
39276;SDS011;63149;48.086;-1.606;2023-05-10T13:51:02;4.60;;;1.60;;
39276;SDS011;63149;48.086;-1.606;2023-05-10T13:53:29;23.58;;;3.40;;
39276;SDS011;63149;48.086;-1.606;2023-05-10T13:55:56;33.00;;;4.78;;
39276;SDS011;63149;48.086;-1.606;2023-05-10T13:58:23;5.53;;;1.92;;
39276;SDS011;63149;48.086;-1.606;2023-05-10T14:00:50;6.97;;;1.48;;
39276;SDS011;63149;48.086;-1.606;2023-05-10T14:03:18;6.32;;;1.70;;
39276;SDS011;63149;48.086;-1.606;2023-05-10T14:05:46;6.38;;;1.63;;
39276;SDS011;63149;48.086;-1.606;2023-05-10T14:08:13;3.22;;;1.13;;
39276;SDS011;63149;48.086;-1.606;2023-05-10T14:10:41;7.20;;;1.10;;
39276;SDS011;63149;48.086;-1.606;2023-05-10T14:13:08;5.25;;;1.13;;
39276;SDS011;63149;48.086;-1.606;2023-05-10T14:15:35;3.60;;;0.90;;
39276;SDS011;63149;48.086;-1.606;2023-05-10T14:18:02;4.75;;;1.65;;
39276;SDS011;63149;48.086;-1.606;2023-05-10T14:20:29;3.30;;;1.15;;
39276;SDS011;63149;48.086;-1.606;2023-05-10T14:23:00;6.05;;;1.77;;
39276;SDS011;63149;48.086;-1.606;2023-05-10T14:25:27;6.63;;;1.15;;
39276;SDS011;63149;48.086;-1.606;2023-05-10T14:27:54;4.93;;;1.30;;
39276;SDS011;63149;48.086;-1.606;2023-05-10T14:30:21;3.90;;;1.58;;
39276;SDS011;63149;48.086;-1.606;2023-05-10T14:32:49;7.30;;;1.60;;
39276;SDS011;63149;48.086;-1.606;2023-05-10T14:35:16;4.55;;;1.17;;
39276;SDS011;63149;48.086;-1.606;2023-05-10T14:37:43;3.63;;;1.20;;
39276;SDS011;63149;48.086;-1.606;2023-05-10T14:40:13;5.53;;;1.50;;
39276;SDS011;63149;48.086;-1.606;2023-05-10T14:42:40;4.32;;;1.30;;
39276;SDS011;63149;48.086;-1.606;2023-05-10T14:45:08;5.50;;;1.25;;
39276;SDS011;63149;48.086;-1.606;2023-05-10T14:47:38;4.72;;;1.35;;
39276;SDS011;63149;48.086;-1.606;2023-05-10T14:50:05;6.38;;;1.60;;
39276;SDS011;63149;48.086;-1.606;2023-05-10T14:52:33;8.07;;;1.60;;
39276;SDS011;63149;48.086;-1.606;2023-05-10T14:55:01;8.63;;;2.03;;
39276;SDS011;63149;48.086;-1.606;2023-05-10T14:57:29;9.02;;;1.73;;
39276;SDS011;63149;48.086;-1.606;2023-05-10T14:59:57;9.05;;;2.60;;
39276;SDS011;63149;48.086;-1.606;2023-05-10T15:02:24;7.10;;;1.70;;
39276;SDS011;63149;48.086;-1.606;2023-05-10T15:04:57;8.38;;;1.60;;
39276;SDS011;63149;48.086;-1.606;2023-05-10T15:07:25;6.68;;;1.67;;
39276;SDS011;63149;48.086;-1.606;2023-05-10T15:09:52;5.57;;;1.95;;
39276;SDS011;63149;48.086;-1.606;2023-05-10T15:12:20;3.97;;;1.77;;
39276;SDS011;63149;48.086;-1.606;2023-05-10T15:14:49;5.97;;;2.22;;
39276;SDS011;63149;48.086;-1.606;2023-05-10T15:17:16;4.95;;;1.60;;
39276;SDS011;63149;48.086;-1.606;2023-05-10T15:19:43;7.82;;;1.50;;
39276;SDS011;63149;48.086;-1.606;2023-05-10T15:22:11;3.92;;;1.48;;
39276;SDS011;63149;48.086;-1.606;2023-05-10T15:24:38;5.90;;;2.17;;
39276;SDS011;63149;48.086;-1.606;2023-05-10T15:27:06;7.80;;;2.15;;
39276;SDS011;63149;48.086;-1.606;2023-05-10T15:29:37;6.82;;;2.63;;
39276;SDS011;63149;48.086;-1.606;2023-05-10T15:32:07;8.63;;;2.35;;
39276;SDS011;63149;48.086;-1.606;2023-05-10T15:34:34;6.97;;;2.33;;
39276;SDS011;63149;48.086;-1.606;2023-05-10T15:37:02;6.45;;;2.10;;
39276;SDS011;63149;48.086;-1.606;2023-05-10T15:39:29;6.82;;;1.80;;
39276;SDS011;63149;48.086;-1.606;2023-05-10T15:41:56;4.95;;;1.70;;
39276;SDS011;63149;48.086;-1.606;2023-05-10T15:44:24;8.68;;;2.25;;
39276;SDS011;63149;48.086;-1.606;2023-05-10T15:46:51;6.38;;;2.00;;
39276;SDS011;63149;48.086;-1.606;2023-05-10T15:49:20;5.13;;;1.60;;
39276;SDS011;63149;48.086;-1.606;2023-05-10T15:51:47;10.10;;;2.95;;
39276;SDS011;63149;48.086;-1.606;2023-05-10T15:54:14;10.18;;;2.22;;
39276;SDS011;63149;48.086;-1.606;2023-05-10T15:56:41;10.18;;;2.97;;
39276;SDS011;63149;48.086;-1.606;2023-05-10T15:59:09;8.27;;;1.80;;
39276;SDS011;63149;48.086;-1.606;2023-05-10T16:01:36;9.90;;;2.67;;
39276;SDS011;63149;48.086;-1.606;2023-05-10T16:04:03;12.57;;;3.25;;
39276;SDS011;63149;48.086;-1.606;2023-05-10T16:06:32;10.40;;;2.55;;
39276;SDS011;63149;48.086;-1.606;2023-05-10T16:08:59;8.98;;;2.30;;
39276;SDS011;63149;48.086;-1.606;2023-05-10T16:11:26;4.40;;;2.10;;
39276;SDS011;63149;48.086;-1.606;2023-05-10T16:13:53;6.82;;;2.30;;
39276;SDS011;63149;48.086;-1.606;2023-05-10T16:16:21;6.95;;;2.53;;
39276;SDS011;63149;48.086;-1.606;2023-05-10T16:18:48;6.95;;;2.42;;
39276;SDS011;63149;48.086;-1.606;2023-05-10T16:21:15;12.13;;;2.88;;
39276;SDS011;63149;48.086;-1.606;2023-05-10T16:23:44;17.55;;;3.25;;
39276;SDS011;63149;48.086;-1.606;2023-05-10T16:26:11;15.05;;;3.25;;
39276;SDS011;63149;48.086;-1.606;2023-05-10T16:28:38;11.00;;;2.53;;
39276;SDS011;63149;48.086;-1.606;2023-05-10T16:31:05;8.45;;;2.55;;
39276;SDS011;63149;48.086;-1.606;2023-05-10T16:33:33;7.32;;;2.50;;
39276;SDS011;63149;48.086;-1.606;2023-05-10T16:36:01;12.00;;;3.40;;
39276;SDS011;63149;48.086;-1.606;2023-05-10T16:38:30;13.65;;;2.50;;
39276;SDS011;63149;48.086;-1.606;2023-05-10T16:40:58;9.50;;;2.83;;
39276;SDS011;63149;48.086;-1.606;2023-05-10T16:43:27;9.88;;;2.38;;
39276;SDS011;63149;48.086;-1.606;2023-05-10T16:45:54;20.95;;;9.70;;
39276;SDS011;63149;48.086;-1.606;2023-05-10T16:48:22;9.35;;;3.00;;
39276;SDS011;63149;48.086;-1.606;2023-05-10T16:50:49;10.93;;;3.58;;
39276;SDS011;63149;48.086;-1.606;2023-05-10T16:53:16;6.35;;;3.10;;
39276;SDS011;63149;48.086;-1.606;2023-05-10T16:55:44;7.78;;;2.95;;
39276;SDS011;63149;48.086;-1.606;2023-05-10T16:58:12;9.50;;;3.20;;
39276;SDS011;63149;48.086;-1.606;2023-05-10T17:00:40;9.10;;;2.53;;
39276;SDS011;63149;48.086;-1.606;2023-05-10T17:03:07;5.93;;;3.03;;
39276;SDS011;63149;48.086;-1.606;2023-05-10T17:05:34;10.43;;;2.83;;
39276;SDS011;63149;48.086;-1.606;2023-05-10T17:08:01;8.20;;;2.78;;
39276;SDS011;63149;48.086;-1.606;2023-05-10T17:10:28;6.78;;;2.28;;
39276;SDS011;63149;48.086;-1.606;2023-05-10T17:12:56;6.90;;;2.53;;
39276;SDS011;63149;48.086;-1.606;2023-05-10T17:15:24;7.72;;;4.75;;
39276;SDS011;63149;48.086;-1.606;2023-05-10T17:17:52;11.48;;;3.65;;
39276;SDS011;63149;48.086;-1.606;2023-05-10T17:20:19;6.53;;;2.58;;
39276;SDS011;63149;48.086;-1.606;2023-05-10T17:22:46;8.55;;;2.55;;
39276;SDS011;63149;48.086;-1.606;2023-05-10T17:25:14;6.30;;;2.80;;
39276;SDS011;63149;48.086;-1.606;2023-05-10T17:27:41;7.07;;;3.58;;
39276;SDS011;63149;48.086;-1.606;2023-05-10T17:30:09;10.07;;;3.42;;
39276;SDS011;63149;48.086;-1.606;2023-05-10T17:32:37;12.05;;;3.65;;
39276;SDS011;63149;48.086;-1.606;2023-05-10T17:35:05;8.35;;;3.78;;
39276;SDS011;63149;48.086;-1.606;2023-05-10T17:37:32;7.68;;;2.90;;
39276;SDS011;63149;48.086;-1.606;2023-05-10T17:39:59;7.88;;;3.25;;
39276;SDS011;63149;48.086;-1.606;2023-05-10T17:42:29;9.48;;;3.22;;
39276;SDS011;63149;48.086;-1.606;2023-05-10T17:44:57;11.65;;;3.33;;
39276;SDS011;63149;48.086;-1.606;2023-05-10T17:47:24;8.60;;;3.50;;
39276;SDS011;63149;48.086;-1.606;2023-05-10T17:49:53;10.93;;;3.67;;
39276;SDS011;63149;48.086;-1.606;2023-05-10T17:52:20;6.05;;;3.03;;
39276;SDS011;63149;48.086;-1.606;2023-05-10T17:54:47;8.98;;;3.50;;
39276;SDS011;63149;48.086;-1.606;2023-05-10T17:57:15;11.63;;;4.10;;
39276;SDS011;63149;48.086;-1.606;2023-05-10T17:59:42;13.77;;;3.90;;
39276;SDS011;63149;48.086;-1.606;2023-05-10T18:02:09;7.00;;;3.75;;
39276;SDS011;63149;48.086;-1.606;2023-05-10T18:04:38;8.80;;;3.80;;
39276;SDS011;63149;48.086;-1.606;2023-05-10T18:07:07;12.18;;;3.80;;
39276;SDS011;63149;48.086;-1.606;2023-05-10T18:09:34;8.20;;;3.65;;
39276;SDS011;63149;48.086;-1.606;2023-05-10T18:12:01;8.13;;;4.07;;
39276;SDS011;63149;48.086;-1.606;2023-05-10T18:14:30;9.77;;;4.10;;
39276;SDS011;63149;48.086;-1.606;2023-05-10T18:16:57;5.75;;;3.38;;
39276;SDS011;63149;48.086;-1.606;2023-05-10T18:19:24;8.00;;;3.75;;
39276;SDS011;63149;48.086;-1.606;2023-05-10T18:21:52;5.10;;;3.63;;
39276;SDS011;63149;48.086;-1.606;2023-05-10T18:24:20;5.32;;;3.35;;
39276;SDS011;63149;48.086;-1.606;2023-05-10T18:26:47;7.63;;;3.45;;
39276;SDS011;63149;48.086;-1.606;2023-05-10T18:29:15;10.15;;;3.20;;
39276;SDS011;63149;48.086;-1.606;2023-05-10T18:31:42;12.02;;;2.90;;
39276;SDS011;63149;48.086;-1.606;2023-05-10T18:34:09;30.00;;;3.13;;
39276;SDS011;63149;48.086;-1.606;2023-05-10T18:36:37;19.27;;;2.92;;
39276;SDS011;63149;48.086;-1.606;2023-05-10T18:39:04;7.28;;;2.22;;
39276;SDS011;63149;48.086;-1.606;2023-05-10T18:41:33;16.75;;;3.00;;
39276;SDS011;63149;48.086;-1.606;2023-05-10T18:44:01;7.65;;;2.20;;
39276;SDS011;63149;48.086;-1.606;2023-05-10T18:46:28;11.82;;;2.30;;
39276;SDS011;63149;48.086;-1.606;2023-05-10T18:48:55;9.82;;;1.92;;
39276;SDS011;63149;48.086;-1.606;2023-05-10T18:51:22;7.68;;;3.10;;
39276;SDS011;63149;48.086;-1.606;2023-05-10T18:53:50;5.32;;;1.95;;
39276;SDS011;63149;48.086;-1.606;2023-05-10T18:56:17;7.68;;;2.30;;
39276;SDS011;63149;48.086;-1.606;2023-05-10T18:58:47;4.95;;;1.73;;
39276;SDS011;63149;48.086;-1.606;2023-05-10T19:01:14;5.10;;;1.30;;
39276;SDS011;63149;48.086;-1.606;2023-05-10T19:03:42;4.20;;;1.77;;
39276;SDS011;63149;48.086;-1.606;2023-05-10T19:06:10;4.63;;;1.60;;
39276;SDS011;63149;48.086;-1.606;2023-05-10T19:08:37;3.75;;;1.30;;
39276;SDS011;63149;48.086;-1.606;2023-05-10T19:11:04;5.35;;;1.60;;
39276;SDS011;63149;48.086;-1.606;2023-05-10T19:13:31;6.63;;;1.75;;
39276;SDS011;63149;48.086;-1.606;2023-05-10T19:16:01;3.38;;;1.58;;
39276;SDS011;63149;48.086;-1.606;2023-05-10T19:18:28;5.78;;;2.00;;
39276;SDS011;63149;48.086;-1.606;2023-05-10T19:20:56;5.18;;;2.10;;
39276;SDS011;63149;48.086;-1.606;2023-05-10T19:23:25;9.02;;;2.15;;
39276;SDS011;63149;48.086;-1.606;2023-05-10T19:25:53;5.35;;;1.92;;
39276;SDS011;63149;48.086;-1.606;2023-05-10T19:28:20;4.75;;;1.77;;
39276;SDS011;63149;48.086;-1.606;2023-05-10T19:30:47;3.85;;;2.05;;
39276;SDS011;63149;48.086;-1.606;2023-05-10T19:33:16;5.40;;;1.60;;